KLM778 EHAM-EDDM
Flight info
| Callsign | KLM778 |
|---|---|
| Flight time | 1h 10m |
| Altitude | 35000 |
| Route | EDUPO Z739 MISGO DCT DOJOH DCT DODEN/N0444F330 DCT TABUM DCT BOMBI T104 HAREM/N0403F270 T104 ROKIL ROKIL1B |
| Aircraft | A333/H-SDE3GHIJ2J3J5M1RVWXY/LB2D1 |
Departure
| Time | 2026-05-07 17:52 |
|---|---|
| Airport | Amsterdam Airport Schiphol (EHAM) |
Arrival
| Time | 2026-05-07 19:03 |
|---|---|
| Airport | Munich Airport (EDDM) |
| Time | Latitude | Longitude | Altitude | Speed | Heading |
|---|---|---|---|---|---|
| 2026-05-07 17:14 | 52.31364 | 4.75804 | 12 ft | 0 kts | 266° |
| 2026-05-07 17:37 | 52.31364 | 4.75807 | 12 ft | 3 kts | 271° |
| 2026-05-07 17:37 | 52.31359 | 4.75839 | 14 ft | 3 kts | 317° |
| 2026-05-07 17:37 | 52.31341 | 4.75855 | 11 ft | 3 kts | 4° |
| 2026-05-07 17:37 | 52.31322 | 4.75845 | 11 ft | 3 kts | 48° |
| 2026-05-07 17:38 | 52.31312 | 4.75819 | 11 ft | 3 kts | 70° |
| 2026-05-07 17:38 | 52.31307 | 4.75789 | 11 ft | 3 kts | 81° |
| 2026-05-07 17:39 | 52.31365 | 4.75841 | 11 ft | 2 kts | 266° |
| 2026-05-07 17:39 | 52.31367 | 4.75868 | 11 ft | 3 kts | 269° |
| 2026-05-07 17:39 | 52.31363 | 4.75898 | 12 ft | 3 kts | 314° |
| 2026-05-07 17:40 | 52.31347 | 4.75915 | 14 ft | 2 kts | 357° |
| 2026-05-07 17:40 | 52.31345 | 4.75915 | 14 ft | 0 kts | 357° |
| 2026-05-07 17:43 | 52.31403 | 4.75899 | 13 ft | 15 kts | 335° |
| 2026-05-07 17:43 | 52.31436 | 4.75721 | 14 ft | 22 kts | 266° |
| 2026-05-07 17:44 | 52.31414 | 4.75420 | 13 ft | 20 kts | 269° |
| 2026-05-07 17:44 | 52.31416 | 4.75188 | 11 ft | 23 kts | 269° |
| 2026-05-07 17:44 | 52.31412 | 4.74931 | 16 ft | 22 kts | 267° |
| 2026-05-07 17:44 | 52.31406 | 4.74680 | 18 ft | 23 kts | 268° |
| 2026-05-07 17:45 | 52.31399 | 4.74413 | 15 ft | 16 kts | 266° |
| 2026-05-07 17:45 | 52.31394 | 4.74357 | 14 ft | 1 kts | 261° |
| 2026-05-07 17:45 | 52.31391 | 4.74344 | 15 ft | 1 kts | 253° |
| 2026-05-07 17:45 | 52.31387 | 4.74331 | 17 ft | 1 kts | 244° |
| 2026-05-07 17:46 | 52.31381 | 4.74319 | 16 ft | 2 kts | 232° |
| 2026-05-07 17:46 | 52.31356 | 4.74296 | 16 ft | 7 kts | 199° |
| 2026-05-07 17:46 | 52.31286 | 4.74278 | 15 ft | 14 kts | 186° |
| 2026-05-07 17:46 | 52.31163 | 4.74261 | 12 ft | 20 kts | 183° |
| 2026-05-07 17:47 | 52.31021 | 4.74251 | 12 ft | 21 kts | 182° |
| 2026-05-07 17:47 | 52.30863 | 4.74236 | 11 ft | 23 kts | 182° |
| 2026-05-07 17:47 | 52.30709 | 4.74212 | 14 ft | 19 kts | 184° |
| 2026-05-07 17:47 | 52.30575 | 4.74215 | 14 ft | 20 kts | 183° |
| 2026-05-07 17:48 | 52.30498 | 4.74209 | 17 ft | 0 kts | 183° |
| 2026-05-07 17:48 | 52.30497 | 4.74208 | 17 ft | 1 kts | 183° |
| 2026-05-07 17:49 | 52.30467 | 4.74205 | 18 ft | 8 kts | 185° |
| 2026-05-07 17:49 | 52.30394 | 4.74181 | 19 ft | 14 kts | 201° |
| 2026-05-07 17:49 | 52.30315 | 4.74050 | 20 ft | 17 kts | 228° |
| 2026-05-07 17:49 | 52.30223 | 4.73916 | 18 ft | 18 kts | 224° |
| 2026-05-07 17:50 | 52.30203 | 4.73862 | 19 ft | 0 kts | 251° |
| 2026-05-07 17:50 | 52.30203 | 4.73861 | 19 ft | 1 kts | 252° |
| 2026-05-07 17:51 | 52.30199 | 4.73823 | 19 ft | 7 kts | 265° |
| 2026-05-07 17:51 | 52.30243 | 4.73745 | 17 ft | 13 kts | 351° |
| 2026-05-07 17:51 | 52.30300 | 4.73737 | 15 ft | 1 kts | 359° |
| 2026-05-07 17:51 | 52.30396 | 4.73743 | 17 ft | 47 kts | 3° |
| 2026-05-07 17:52 | 52.31008 | 4.73803 | 25 ft | 127 kts | 5° |
| 2026-05-07 17:52 | 52.32100 | 4.73908 | 23 ft | 188 kts | 2° |
| 2026-05-07 17:52 | 52.33576 | 4.74065 | 330 ft | 226 kts | 6° |
| 2026-05-07 17:52 | 52.35173 | 4.74353 | 1432 ft | 238 kts | 17° |
| 2026-05-07 17:53 | 52.36708 | 4.75571 | 2796 ft | 246 kts | 30° |
| 2026-05-07 17:53 | 52.38089 | 4.77122 | 4470 ft | 235 kts | 43° |
| 2026-05-07 17:53 | 52.39223 | 4.78979 | 5594 ft | 231 kts | 49° |
| 2026-05-07 17:53 | 52.40374 | 4.81022 | 5962 ft | 260 kts | 49° |
| 2026-05-07 17:54 | 52.41587 | 4.83368 | 5985 ft | 274 kts | 58° |
| 2026-05-07 17:54 | 52.42300 | 4.86193 | 6022 ft | 273 kts | 82° |
| 2026-05-07 17:54 | 52.42430 | 4.89298 | 6483 ft | 275 kts | 91° |
| 2026-05-07 17:54 | 52.42433 | 4.92452 | 7409 ft | 277 kts | 91° |
| 2026-05-07 17:55 | 52.42382 | 4.95618 | 8413 ft | 279 kts | 98° |
| 2026-05-07 17:55 | 52.41839 | 4.98666 | 9343 ft | 282 kts | 120° |
| 2026-05-07 17:55 | 52.40565 | 5.01108 | 10174 ft | 288 kts | 141° |
| 2026-05-07 17:55 | 52.38909 | 5.03143 | 10585 ft | 309 kts | 147° |
| 2026-05-07 17:56 | 52.37069 | 5.05205 | 11015 ft | 328 kts | 147° |
| 2026-05-07 17:56 | 52.35159 | 5.07346 | 11728 ft | 336 kts | 146° |
| 2026-05-07 17:56 | 52.33293 | 5.09710 | 12484 ft | 341 kts | 138° |
| 2026-05-07 17:56 | 52.31625 | 5.12500 | 12893 ft | 346 kts | 134° |
| 2026-05-07 17:57 | 52.30008 | 5.15433 | 12983 ft | 348 kts | 133° |
| 2026-05-07 17:57 | 52.28943 | 5.17389 | 12989 ft | 348 kts | 133° |
| 2026-05-07 17:57 | 52.26789 | 5.21336 | 12988 ft | 348 kts | 133° |
| 2026-05-07 17:57 | 52.25190 | 5.24259 | 12988 ft | 349 kts | 133° |
| 2026-05-07 17:58 | 52.23681 | 5.27361 | 12987 ft | 349 kts | 128° |
| 2026-05-07 17:58 | 52.22267 | 5.30577 | 12987 ft | 350 kts | 127° |
| 2026-05-07 17:58 | 52.20864 | 5.33823 | 12986 ft | 350 kts | 126° |
| 2026-05-07 17:58 | 52.19936 | 5.35972 | 12986 ft | 349 kts | 126° |
| 2026-05-07 17:59 | 52.18671 | 5.38893 | 12989 ft | 349 kts | 127° |
| 2026-05-07 17:59 | 52.18001 | 5.40437 | 12991 ft | 349 kts | 126° |
| 2026-05-07 17:59 | 52.16598 | 5.43664 | 12985 ft | 349 kts | 126° |
| 2026-05-07 17:59 | 52.14733 | 5.47942 | 12986 ft | 350 kts | 126° |
| 2026-05-07 18:00 | 52.13783 | 5.50121 | 12984 ft | 350 kts | 126° |
| 2026-05-07 18:00 | 52.12372 | 5.53350 | 12988 ft | 350 kts | 126° |
| 2026-05-07 18:00 | 52.10957 | 5.56581 | 13109 ft | 350 kts | 126° |
| 2026-05-07 18:00 | 52.09553 | 5.59784 | 13713 ft | 354 kts | 126° |
| 2026-05-07 18:01 | 52.08118 | 5.63054 | 14532 ft | 356 kts | 126° |
| 2026-05-07 18:01 | 52.06668 | 5.66338 | 15295 ft | 359 kts | 128° |
| 2026-05-07 18:01 | 52.05099 | 5.69506 | 16016 ft | 362 kts | 131° |
| 2026-05-07 18:01 | 52.03445 | 5.72626 | 16753 ft | 366 kts | 132° |
| 2026-05-07 18:02 | 52.00063 | 5.78915 | 18105 ft | 373 kts | 132° |
| 2026-05-07 18:02 | 51.98348 | 5.82103 | 18725 ft | 377 kts | 132° |
| 2026-05-07 18:02 | 51.96576 | 5.85276 | 19310 ft | 381 kts | 134° |
| 2026-05-07 18:03 | 51.94760 | 5.88422 | 19883 ft | 384 kts | 134° |
| 2026-05-07 18:03 | 51.92919 | 5.91589 | 20463 ft | 387 kts | 134° |
| 2026-05-07 18:03 | 51.91061 | 5.94782 | 21030 ft | 391 kts | 134° |
| 2026-05-07 18:03 | 51.89189 | 5.97997 | 21578 ft | 394 kts | 135° |
| 2026-05-07 18:04 | 51.87299 | 6.01242 | 22116 ft | 398 kts | 135° |
| 2026-05-07 18:04 | 51.85387 | 6.04519 | 22634 ft | 402 kts | 135° |
| 2026-05-07 18:04 | 51.83465 | 6.07812 | 23186 ft | 405 kts | 135° |
| 2026-05-07 18:04 | 51.81520 | 6.11140 | 23706 ft | 408 kts | 135° |
| 2026-05-07 18:05 | 51.79561 | 6.14486 | 24150 ft | 411 kts | 135° |
| 2026-05-07 18:05 | 51.77588 | 6.17854 | 24602 ft | 414 kts | 135° |
| 2026-05-07 18:05 | 51.75605 | 6.21232 | 25058 ft | 416 kts | 135° |
| 2026-05-07 18:05 | 51.73606 | 6.24635 | 25494 ft | 418 kts | 135° |
| 2026-05-07 18:06 | 51.71621 | 6.28008 | 25905 ft | 421 kts | 135° |
| 2026-05-07 18:06 | 51.69573 | 6.31483 | 26372 ft | 423 kts | 135° |
| 2026-05-07 18:06 | 51.67537 | 6.34933 | 26768 ft | 426 kts | 135° |
| 2026-05-07 18:06 | 51.65521 | 6.38345 | 27182 ft | 428 kts | 135° |
| 2026-05-07 18:07 | 51.63457 | 6.41834 | 27582 ft | 430 kts | 135° |
| 2026-05-07 18:07 | 51.61381 | 6.45336 | 27955 ft | 433 kts | 135° |
| 2026-05-07 18:07 | 51.59294 | 6.48853 | 28340 ft | 436 kts | 135° |
| 2026-05-07 18:07 | 51.57194 | 6.52386 | 28728 ft | 438 kts | 135° |
| 2026-05-07 18:08 | 51.55081 | 6.55937 | 29114 ft | 440 kts | 135° |
| 2026-05-07 18:08 | 51.52958 | 6.59500 | 29488 ft | 443 kts | 135° |
| 2026-05-07 18:08 | 51.50821 | 6.63081 | 29851 ft | 445 kts | 135° |
| 2026-05-07 18:08 | 51.48670 | 6.66679 | 30212 ft | 447 kts | 135° |
| 2026-05-07 18:09 | 51.46509 | 6.70289 | 30515 ft | 450 kts | 135° |
| 2026-05-07 18:09 | 51.44327 | 6.73930 | 30821 ft | 452 kts | 135° |
| 2026-05-07 18:09 | 51.42143 | 6.77566 | 31119 ft | 454 kts | 135° |
| 2026-05-07 18:09 | 51.39975 | 6.81173 | 31413 ft | 456 kts | 135° |
| 2026-05-07 18:10 | 51.37768 | 6.84838 | 31712 ft | 458 kts | 135° |
| 2026-05-07 18:10 | 51.35546 | 6.88524 | 31990 ft | 460 kts | 135° |
| 2026-05-07 18:10 | 51.33322 | 6.92208 | 32371 ft | 460 kts | 135° |
| 2026-05-07 18:10 | 51.31100 | 6.95882 | 32815 ft | 459 kts | 135° |
| 2026-05-07 18:11 | 51.28884 | 6.99541 | 33238 ft | 457 kts | 135° |
| 2026-05-07 18:11 | 51.27417 | 7.01961 | 33501 ft | 457 kts | 135° |
| 2026-05-07 18:11 | 51.24455 | 7.06837 | 34031 ft | 456 kts | 135° |
| 2026-05-07 18:11 | 51.22241 | 7.10445 | 34349 ft | 455 kts | 136° |
| 2026-05-07 18:12 | 51.20021 | 7.13951 | 34637 ft | 455 kts | 137° |
| 2026-05-07 18:12 | 51.17754 | 7.17468 | 34882 ft | 456 kts | 137° |
| 2026-05-07 18:12 | 51.15473 | 7.20985 | 34963 ft | 453 kts | 137° |
| 2026-05-07 18:13 | 51.10986 | 7.27909 | 34983 ft | 447 kts | 137° |
| 2026-05-07 18:13 | 51.06528 | 7.34809 | 34979 ft | 447 kts | 137° |
| 2026-05-07 18:14 | 51.02069 | 7.41709 | 34980 ft | 448 kts | 137° |
| 2026-05-07 18:14 | 50.97603 | 7.48604 | 34981 ft | 447 kts | 137° |
| 2026-05-07 18:15 | 50.93137 | 7.55480 | 34975 ft | 447 kts | 137° |
| 2026-05-07 18:15 | 50.88664 | 7.62344 | 34977 ft | 449 kts | 137° |
| 2026-05-07 18:16 | 50.84195 | 7.69184 | 34973 ft | 449 kts | 137° |
| 2026-05-07 18:16 | 50.79695 | 7.76053 | 34970 ft | 449 kts | 137° |
| 2026-05-07 18:17 | 50.75198 | 7.82897 | 34972 ft | 449 kts | 137° |
| 2026-05-07 18:17 | 50.70695 | 7.89731 | 34967 ft | 449 kts | 137° |
| 2026-05-07 18:18 | 50.66182 | 7.96560 | 34966 ft | 449 kts | 137° |
| 2026-05-07 18:18 | 50.61662 | 8.03383 | 34979 ft | 451 kts | 137° |
| 2026-05-07 18:19 | 50.57122 | 8.10214 | 34976 ft | 451 kts | 137° |
| 2026-05-07 18:19 | 50.52573 | 8.17040 | 34978 ft | 452 kts | 137° |
| 2026-05-07 18:20 | 50.48043 | 8.23820 | 34980 ft | 452 kts | 137° |
| 2026-05-07 18:20 | 50.43484 | 8.30623 | 34982 ft | 452 kts | 137° |
| 2026-05-07 18:21 | 50.38911 | 8.37429 | 34984 ft | 452 kts | 137° |
| 2026-05-07 18:21 | 50.34345 | 8.44205 | 34978 ft | 452 kts | 137° |
| 2026-05-07 18:22 | 50.29769 | 8.50977 | 34973 ft | 453 kts | 137° |
| 2026-05-07 18:22 | 50.25182 | 8.57746 | 34968 ft | 454 kts | 138° |
| 2026-05-07 18:23 | 50.20587 | 8.64509 | 34972 ft | 454 kts | 138° |
| 2026-05-07 18:23 | 50.15985 | 8.71262 | 34965 ft | 454 kts | 138° |
| 2026-05-07 18:24 | 50.11426 | 8.77934 | 34966 ft | 454 kts | 138° |
| 2026-05-07 18:24 | 50.06816 | 8.84663 | 34965 ft | 454 kts | 138° |
| 2026-05-07 18:25 | 50.02203 | 8.91378 | 34962 ft | 455 kts | 138° |
| 2026-05-07 18:25 | 49.97575 | 8.98095 | 34970 ft | 455 kts | 138° |
| 2026-05-07 18:26 | 49.92950 | 9.04790 | 34967 ft | 455 kts | 138° |
| 2026-05-07 18:26 | 49.88308 | 9.11491 | 34967 ft | 455 kts | 138° |
| 2026-05-07 18:27 | 49.83677 | 9.18158 | 34967 ft | 454 kts | 138° |
| 2026-05-07 18:27 | 49.79031 | 9.24828 | 34975 ft | 456 kts | 139° |
| 2026-05-07 18:28 | 49.74374 | 9.31494 | 34972 ft | 456 kts | 139° |
| 2026-05-07 18:28 | 49.69741 | 9.38109 | 34972 ft | 456 kts | 139° |
| 2026-05-07 18:29 | 49.65074 | 9.44755 | 34975 ft | 456 kts | 139° |
| 2026-05-07 18:29 | 49.60402 | 9.51389 | 34978 ft | 456 kts | 139° |
| 2026-05-07 18:30 | 49.55736 | 9.57997 | 34969 ft | 456 kts | 139° |
| 2026-05-07 18:30 | 49.51058 | 9.64603 | 34994 ft | 457 kts | 139° |
| 2026-05-07 18:31 | 49.46360 | 9.71220 | 34994 ft | 457 kts | 139° |
| 2026-05-07 18:31 | 49.41673 | 9.77804 | 34994 ft | 457 kts | 139° |
| 2026-05-07 18:31 | 49.39326 | 9.81095 | 34631 ft | 457 kts | 139° |
| 2026-05-07 18:32 | 49.37062 | 9.84492 | 33703 ft | 465 kts | 135° |
| 2026-05-07 18:32 | 49.34806 | 9.88123 | 32681 ft | 472 kts | 134° |
| 2026-05-07 18:32 | 49.32546 | 9.91798 | 31820 ft | 475 kts | 134° |
| 2026-05-07 18:32 | 49.30276 | 9.95480 | 30979 ft | 476 kts | 134° |
| 2026-05-07 18:33 | 49.27995 | 9.99166 | 30231 ft | 476 kts | 134° |
| 2026-05-07 18:33 | 49.25724 | 10.02826 | 29524 ft | 472 kts | 134° |
| 2026-05-07 18:33 | 49.23473 | 10.06446 | 28839 ft | 468 kts | 135° |
| 2026-05-07 18:33 | 49.21236 | 10.10035 | 28191 ft | 463 kts | 135° |
| 2026-05-07 18:34 | 49.19023 | 10.13581 | 27537 ft | 459 kts | 135° |
| 2026-05-07 18:34 | 49.16820 | 10.17104 | 26899 ft | 455 kts | 135° |
| 2026-05-07 18:34 | 49.14640 | 10.20585 | 26308 ft | 451 kts | 135° |
| 2026-05-07 18:34 | 49.12483 | 10.24026 | 25697 ft | 447 kts | 135° |
| 2026-05-07 18:35 | 49.10339 | 10.27440 | 25092 ft | 444 kts | 135° |
| 2026-05-07 18:35 | 49.08210 | 10.30826 | 24503 ft | 441 kts | 136° |
| 2026-05-07 18:35 | 49.06091 | 10.34190 | 23914 ft | 438 kts | 136° |
| 2026-05-07 18:35 | 49.03987 | 10.37527 | 23182 ft | 436 kts | 136° |
| 2026-05-07 18:36 | 49.01895 | 10.40839 | 22642 ft | 430 kts | 136° |
| 2026-05-07 18:36 | 48.99825 | 10.44114 | 21986 ft | 427 kts | 136° |
| 2026-05-07 18:36 | 48.97771 | 10.47360 | 21340 ft | 424 kts | 136° |
| 2026-05-07 18:36 | 48.95724 | 10.50591 | 20715 ft | 421 kts | 136° |
| 2026-05-07 18:37 | 48.93701 | 10.53780 | 20114 ft | 417 kts | 136° |
| 2026-05-07 18:37 | 48.91691 | 10.56944 | 19519 ft | 414 kts | 136° |
| 2026-05-07 18:37 | 48.89699 | 10.60076 | 18918 ft | 411 kts | 136° |
| 2026-05-07 18:37 | 48.87721 | 10.63181 | 18322 ft | 408 kts | 136° |
| 2026-05-07 18:38 | 48.85754 | 10.66266 | 17692 ft | 404 kts | 136° |
| 2026-05-07 18:38 | 48.83834 | 10.69272 | 17213 ft | 399 kts | 136° |
| 2026-05-07 18:38 | 48.81879 | 10.72331 | 17050 ft | 398 kts | 136° |
| 2026-05-07 18:38 | 48.79974 | 10.75306 | 17013 ft | 399 kts | 136° |
| 2026-05-07 18:39 | 48.78041 | 10.78323 | 17023 ft | 398 kts | 136° |
| 2026-05-07 18:39 | 48.76110 | 10.81333 | 17021 ft | 398 kts | 136° |
| 2026-05-07 18:39 | 48.74177 | 10.84342 | 17017 ft | 398 kts | 136° |
| 2026-05-07 18:39 | 48.72244 | 10.87349 | 17009 ft | 398 kts | 136° |
| 2026-05-07 18:40 | 48.70310 | 10.90353 | 17003 ft | 398 kts | 136° |
| 2026-05-07 18:40 | 48.68374 | 10.93358 | 17003 ft | 398 kts | 136° |
| 2026-05-07 18:40 | 48.66439 | 10.96357 | 16999 ft | 399 kts | 136° |
| 2026-05-07 18:40 | 48.64496 | 10.99365 | 17001 ft | 399 kts | 136° |
| 2026-05-07 18:41 | 48.62551 | 11.02373 | 16994 ft | 399 kts | 136° |
| 2026-05-07 18:41 | 48.60623 | 11.05352 | 16999 ft | 390 kts | 136° |
| 2026-05-07 18:41 | 48.58762 | 11.08228 | 17006 ft | 376 kts | 136° |
| 2026-05-07 18:41 | 48.56965 | 11.10998 | 17002 ft | 373 kts | 137° |
| 2026-05-07 18:42 | 48.55150 | 11.13790 | 17000 ft | 373 kts | 137° |
| 2026-05-07 18:42 | 48.53332 | 11.16584 | 16992 ft | 373 kts | 136° |
| 2026-05-07 18:42 | 48.51687 | 11.19607 | 16998 ft | 375 kts | 121° |
| 2026-05-07 18:42 | 48.50813 | 11.23306 | 17003 ft | 376 kts | 102° |
| 2026-05-07 18:43 | 48.50379 | 11.27197 | 17002 ft | 377 kts | 101° |
| 2026-05-07 18:43 | 48.49712 | 11.31018 | 17002 ft | 376 kts | 111° |
| 2026-05-07 18:43 | 48.48743 | 11.34687 | 17008 ft | 377 kts | 114° |
| 2026-05-07 18:43 | 48.47722 | 11.38338 | 17006 ft | 377 kts | 114° |
| 2026-05-07 18:44 | 48.46701 | 11.41977 | 16666 ft | 376 kts | 114° |
| 2026-05-07 18:44 | 48.45703 | 11.45565 | 16116 ft | 375 kts | 112° |
| 2026-05-07 18:44 | 48.45117 | 11.49355 | 15643 ft | 373 kts | 94° |
| 2026-05-07 18:44 | 48.45201 | 11.53225 | 15297 ft | 365 kts | 85° |
| 2026-05-07 18:45 | 48.45438 | 11.56977 | 15123 ft | 353 kts | 84° |
| 2026-05-07 18:45 | 48.45679 | 11.60601 | 14969 ft | 341 kts | 84° |
| 2026-05-07 18:45 | 48.45914 | 11.64107 | 14738 ft | 333 kts | 84° |
| 2026-05-07 18:45 | 48.46147 | 11.67561 | 14408 ft | 330 kts | 84° |
| 2026-05-07 18:46 | 48.46302 | 11.69838 | 14168 ft | 328 kts | 84° |
| 2026-05-07 18:46 | 48.46537 | 11.73253 | 13793 ft | 327 kts | 84° |
| 2026-05-07 18:46 | 48.46768 | 11.76643 | 13379 ft | 325 kts | 84° |
| 2026-05-07 18:46 | 48.46999 | 11.80023 | 12968 ft | 323 kts | 84° |
| 2026-05-07 18:47 | 48.47227 | 11.83377 | 12578 ft | 321 kts | 84° |
| 2026-05-07 18:47 | 48.47454 | 11.86731 | 12170 ft | 320 kts | 84° |
| 2026-05-07 18:47 | 48.47680 | 11.90051 | 11766 ft | 318 kts | 84° |
| 2026-05-07 18:47 | 48.47906 | 11.93364 | 11378 ft | 317 kts | 84° |
| 2026-05-07 18:48 | 48.48127 | 11.96611 | 11002 ft | 315 kts | 84° |
| 2026-05-07 18:48 | 48.48349 | 11.99886 | 10628 ft | 314 kts | 84° |
| 2026-05-07 18:48 | 48.48570 | 12.03146 | 10283 ft | 312 kts | 84° |
| 2026-05-07 18:48 | 48.48789 | 12.06386 | 10066 ft | 310 kts | 84° |
| 2026-05-07 18:49 | 48.49008 | 12.09633 | 9662 ft | 311 kts | 84° |
| 2026-05-07 18:49 | 48.49225 | 12.12861 | 9331 ft | 307 kts | 84° |
| 2026-05-07 18:49 | 48.49436 | 12.16059 | 8975 ft | 304 kts | 84° |
| 2026-05-07 18:49 | 48.49508 | 12.19225 | 8599 ft | 302 kts | 98° |
| 2026-05-07 18:50 | 48.48819 | 12.22155 | 8229 ft | 296 kts | 125° |
| 2026-05-07 18:50 | 48.47402 | 12.24318 | 7870 ft | 287 kts | 152° |
| 2026-05-07 18:50 | 48.45581 | 12.25260 | 7712 ft | 270 kts | 179° |
| 2026-05-07 18:50 | 48.43803 | 12.24862 | 7577 ft | 252 kts | 207° |
| 2026-05-07 18:51 | 48.42442 | 12.23360 | 7438 ft | 238 kts | 229° |
| 2026-05-07 18:51 | 48.41384 | 12.21462 | 7195 ft | 235 kts | 234° |
| 2026-05-07 18:51 | 48.40396 | 12.19543 | 6914 ft | 234 kts | 234° |
| 2026-05-07 18:51 | 48.39621 | 12.17420 | 6633 ft | 232 kts | 251° |
| 2026-05-07 18:52 | 48.39253 | 12.15099 | 6484 ft | 223 kts | 262° |
| 2026-05-07 18:52 | 48.39067 | 12.12850 | 6361 ft | 212 kts | 264° |
| 2026-05-07 18:52 | 48.38909 | 12.10689 | 6205 ft | 202 kts | 264° |
| 2026-05-07 18:52 | 48.38755 | 12.08643 | 6102 ft | 192 kts | 265° |
| 2026-05-07 18:53 | 48.39007 | 12.06730 | 5863 ft | 189 kts | 299° |
| 2026-05-07 18:53 | 48.39997 | 12.05467 | 5584 ft | 192 kts | 337° |
| 2026-05-07 18:53 | 48.41325 | 12.05398 | 5295 ft | 196 kts | 15° |
| 2026-05-07 18:53 | 48.42443 | 12.06551 | 5061 ft | 198 kts | 47° |
| 2026-05-07 18:54 | 48.43281 | 12.08195 | 5012 ft | 198 kts | 53° |
| 2026-05-07 18:54 | 48.44069 | 12.09897 | 5007 ft | 198 kts | 54° |
| 2026-05-07 18:54 | 48.44848 | 12.11608 | 5004 ft | 199 kts | 54° |
| 2026-05-07 18:54 | 48.45618 | 12.13345 | 5001 ft | 200 kts | 54° |
| 2026-05-07 18:55 | 48.46388 | 12.15094 | 5006 ft | 200 kts | 54° |
| 2026-05-07 18:55 | 48.47123 | 12.16867 | 4997 ft | 201 kts | 63° |
| 2026-05-07 18:55 | 48.47278 | 12.18945 | 5012 ft | 203 kts | 102° |
| 2026-05-07 18:55 | 48.46591 | 12.20759 | 5015 ft | 201 kts | 139° |
| 2026-05-07 18:56 | 48.45390 | 12.21758 | 5015 ft | 197 kts | 167° |
| 2026-05-07 18:56 | 48.44068 | 12.22174 | 5013 ft | 196 kts | 173° |
| 2026-05-07 18:56 | 48.42720 | 12.22240 | 5006 ft | 193 kts | 194° |
| 2026-05-07 18:56 | 48.41590 | 12.21265 | 5013 ft | 188 kts | 226° |
| 2026-05-07 18:57 | 48.40745 | 12.19775 | 5019 ft | 187 kts | 233° |
| 2026-05-07 18:57 | 48.39974 | 12.18200 | 5017 ft | 187 kts | 239° |
| 2026-05-07 18:57 | 48.39460 | 12.16416 | 5022 ft | 186 kts | 255° |
| 2026-05-07 18:57 | 48.39213 | 12.14515 | 5017 ft | 186 kts | 263° |
| 2026-05-07 18:58 | 48.39054 | 12.12574 | 5017 ft | 186 kts | 264° |
| 2026-05-07 18:58 | 48.38910 | 12.10633 | 5019 ft | 187 kts | 264° |
| 2026-05-07 18:58 | 48.38758 | 12.08692 | 4990 ft | 187 kts | 263° |
| 2026-05-07 18:58 | 48.38590 | 12.06771 | 4812 ft | 181 kts | 263° |
| 2026-05-07 18:59 | 48.38440 | 12.04942 | 4541 ft | 171 kts | 264° |
| 2026-05-07 18:59 | 48.38310 | 12.03218 | 4288 ft | 160 kts | 264° |
| 2026-05-07 18:59 | 48.38189 | 12.01622 | 4059 ft | 150 kts | 264° |
| 2026-05-07 18:59 | 48.38073 | 12.00108 | 3869 ft | 141 kts | 264° |
| 2026-05-07 19:00 | 48.37963 | 11.98692 | 3690 ft | 133 kts | 264° |
| 2026-05-07 19:00 | 48.37858 | 11.97310 | 3514 ft | 133 kts | 264° |
| 2026-05-07 19:00 | 48.37752 | 11.95919 | 3329 ft | 134 kts | 265° |
| 2026-05-07 19:00 | 48.37645 | 11.94517 | 3157 ft | 135 kts | 265° |
| 2026-05-07 19:01 | 48.37537 | 11.93116 | 2969 ft | 135 kts | 265° |
| 2026-05-07 19:01 | 48.37429 | 11.91713 | 2795 ft | 135 kts | 265° |
| 2026-05-07 19:01 | 48.37321 | 11.90308 | 2604 ft | 135 kts | 265° |
| 2026-05-07 19:01 | 48.37212 | 11.88901 | 2404 ft | 135 kts | 265° |
| 2026-05-07 19:02 | 48.37104 | 11.87495 | 2211 ft | 135 kts | 265° |
| 2026-05-07 19:02 | 48.36996 | 11.86087 | 2015 ft | 135 kts | 265° |
| 2026-05-07 19:02 | 48.36887 | 11.84683 | 1838 ft | 135 kts | 265° |
| 2026-05-07 19:02 | 48.36779 | 11.83279 | 1661 ft | 135 kts | 265° |
| 2026-05-07 19:03 | 48.36674 | 11.81886 | 1534 ft | 134 kts | 265° |
| 2026-05-07 19:03 | 48.36575 | 11.80588 | 1466 ft | 107 kts | 260° |
| 2026-05-07 19:03 | 48.36505 | 11.79788 | 1465 ft | 35 kts | 265° |
| 2026-05-07 19:03 | 48.36479 | 11.79458 | 1461 ft | 33 kts | 262° |
| 2026-05-07 19:04 | 48.36448 | 11.79112 | 1462 ft | 33 kts | 260° |
| 2026-05-07 19:04 | 48.36355 | 11.78827 | 1461 ft | 17 kts | 233° |
| 2026-05-07 19:04 | 48.36300 | 11.78716 | 1459 ft | 9 kts | 233° |
| 2026-05-07 19:04 | 48.36257 | 11.78629 | 1459 ft | 12 kts | 234° |
| 2026-05-07 19:05 | 48.36237 | 11.78586 | 1458 ft | 0 kts | 234° |
| 2026-05-07 19:05 | 48.36231 | 11.78573 | 1460 ft | 5 kts | 234° |
| 2026-05-07 19:06 | 48.36196 | 11.78503 | 1460 ft | 11 kts | 233° |
| 2026-05-07 19:06 | 48.36121 | 11.78242 | 1463 ft | 16 kts | 266° |
| 2026-05-07 19:06 | 48.36109 | 11.78059 | 1470 ft | 19 kts | 262° |
| 2026-05-07 19:07 | 48.36089 | 11.77860 | 1461 ft | 19 kts | 264° |
| 2026-05-07 19:07 | 48.36047 | 11.77690 | 1460 ft | 11 kts | 209° |
| 2026-05-07 19:07 | 48.36044 | 11.77688 | 1461 ft | 0 kts | 205° |
| 2026-05-07 19:08 | 48.36043 | 11.77688 | 1461 ft | 0 kts | 205° |
| 2026-05-07 19:09 | 48.36026 | 11.77681 | 1463 ft | 5 kts | 193° |
| 2026-05-07 19:09 | 48.35976 | 11.77677 | 1464 ft | 9 kts | 179° |
| 2026-05-07 19:09 | 48.35897 | 11.77686 | 1465 ft | 13 kts | 173° |
| 2026-05-07 19:09 | 48.35796 | 11.77705 | 1464 ft | 16 kts | 174° |
| 2026-05-07 19:10 | 48.35677 | 11.77723 | 1468 ft | 19 kts | 174° |
| 2026-05-07 19:10 | 48.35547 | 11.77746 | 1461 ft | 18 kts | 173° |
| 2026-05-07 19:10 | 48.35423 | 11.77767 | 1462 ft | 8 kts | 174° |
| 2026-05-07 19:10 | 48.35416 | 11.77768 | 1463 ft | 0 kts | 173° |
| 2026-05-07 19:11 | 48.35406 | 11.77770 | 1464 ft | 3 kts | 172° |
| 2026-05-07 19:11 | 48.35402 | 11.77771 | 1464 ft | 2 kts | 171° |
| 2026-05-07 19:11 | 48.35398 | 11.77772 | 1462 ft | 0 kts | 170° |
| 2026-05-07 19:13 | 48.35382 | 11.77780 | 1459 ft | 5 kts | 160° |
| 2026-05-07 19:13 | 48.35348 | 11.77826 | 1459 ft | 8 kts | 117° |
| 2026-05-07 19:14 | 48.35344 | 11.77928 | 1461 ft | 12 kts | 85° |
| 2026-05-07 19:14 | 48.35349 | 11.77998 | 1464 ft | 0 kts | 82° |
| 2026-05-07 19:14 | 48.35350 | 11.78008 | 1464 ft | 3 kts | 82° |
| 2026-05-07 19:14 | 48.35353 | 11.78061 | 1465 ft | 7 kts | 89° |
| 2026-05-07 19:15 | 48.35329 | 11.78151 | 1461 ft | 11 kts | 137° |
| 2026-05-07 19:15 | 48.35252 | 11.78176 | 1460 ft | 12 kts | 169° |
| 2026-05-07 19:15 | 48.35172 | 11.78223 | 1461 ft | 5 kts | 166° |
| 2026-05-07 19:15 | 48.35129 | 11.78232 | 1467 ft | 8 kts | 173° |
| 2026-05-07 19:16 | 48.35082 | 11.78240 | 1462 ft | 0 kts | 173° |
| 2026-05-07 19:16 | 48.35070 | 11.78243 | 1460 ft | 4 kts | 173° |
| 2026-05-07 19:16 | 48.35032 | 11.78250 | 1464 ft | 7 kts | 173° |
| 2026-05-07 19:16 | 48.35011 | 11.78265 | 1460 ft | 3 kts | 135° |
| 2026-05-07 19:17 | 48.35008 | 11.78271 | 1459 ft | 3 kts | 128° |
| 2026-05-07 19:18 | 48.35003 | 11.78303 | 1462 ft | 5 kts | 94° |
| 2026-05-07 19:18 | 48.35002 | 11.78320 | 1461 ft | 0 kts | 94° |
| 2026-05-07 19:18 | 48.35002 | 11.78334 | 1463 ft | 3 kts | 91° |
| 2026-05-07 19:18 | 48.35003 | 11.78367 | 1467 ft | 0 kts | 86° |